Time;durP1;ratioP1;P1;durP2;ratioP2;P2;SDS_P1;SDS_P2;PMS_P1;PMS_P2;Temp;Humidity;BMP_temperature;BMP_pressure;BME280_temperature;BME280_humidity;BME280_pressure;Samples;Min_cycle;Max_cycle;Signal;HPM_P1;HPM_P2
2021/11/26 00:00:38;;;;;;;6.22;3.30;;;6.20;78.20;;;;;;5008462;28;20089;-70
2021/11/26 00:03:03;;;;;;;7.22;3.05;;;6.10;77.90;;;;;;5013349;28;20033;-70
2021/11/26 00:05:29;;;;;;;5.93;3.00;;;6.10;78.30;;;;;;5009562;28;20026;-70
2021/11/26 00:07:55;;;;;;;9.18;3.15;;;6.10;78.50;;;;;;5007902;28;20049;-70
2021/11/26 00:10:21;;;;;;;7.10;2.88;;;6.10;78.60;;;;;;5008038;28;20534;-70
2021/11/26 00:12:53;;;;;;;7.50;2.67;;;6.10;78.40;;;;;;5008452;28;20030;-71
2021/11/26 00:15:36;;;;;;;5.57;2.80;;;6.20;78.60;;;;;;5008651;28;20026;-70
2021/11/26 00:18:07;;;;;;;5.90;2.63;;;6.10;78.00;;;;;;5007181;28;20284;-70
2021/11/26 00:20:35;;;;;;;6.78;2.67;;;6.10;78.50;;;;;;5010197;28;20026;-69
2021/11/26 00:23:01;;;;;;;7.30;2.95;;;6.10;78.20;;;;;;5007444;28;20030;-69
2021/11/26 00:25:27;;;;;;;4.93;2.78;;;6.00;78.50;;;;;;5007196;28;20113;-70
2021/11/26 00:27:53;;;;;;;4.70;2.92;;;6.00;78.50;;;;;;5007838;28;20108;-69
2021/11/26 00:30:18;;;;;;;5.20;2.53;;;6.00;78.50;;;;;;5008530;28;20031;-69
2021/11/26 00:32:44;;;;;;;4.72;2.63;;;6.00;78.50;;;;;;5010240;28;20030;-69
2021/11/26 00:35:10;;;;;;;4.55;2.60;;;6.10;78.90;;;;;;5007285;28;20037;-69
2021/11/26 00:37:37;;;;;;;6.07;2.78;;;6.10;78.80;;;;;;5007848;28;20422;-69
2021/11/26 00:40:03;;;;;;;5.88;2.97;;;6.10;78.60;;;;;;5007818;28;20017;-70
2021/11/26 00:42:29;;;;;;;7.18;2.63;;;6.10;78.80;;;;;;5009243;28;20044;-71
2021/11/26 00:44:55;;;;;;;7.82;2.88;;;6.10;78.40;;;;;;5011317;28;20026;-70
2021/11/26 00:47:21;;;;;;;5.63;2.55;;;6.10;78.30;;;;;;5007782;28;20038;-70
2021/11/26 00:49:47;;;;;;;6.13;3.20;;;6.10;78.80;;;;;;5007788;28;20414;-70
2021/11/26 00:52:13;;;;;;;8.13;3.17;;;6.10;79.00;;;;;;5008263;28;20401;-70
2021/11/26 00:54:38;;;;;;;8.00;3.05;;;6.10;78.70;;;;;;5007872;28;20562;-70
2021/11/26 00:57:07;;;;;;;5.65;3.10;;;6.10;78.50;;;;;;5010166;28;20033;-70
2021/11/26 00:59:34;;;;;;;7.00;2.83;;;6.20;79.10;;;;;;4991284;28;20022;-70
2021/11/26 01:02:00;;;;;;;6.60;2.83;;;6.10;78.70;;;;;;4994136;28;20033;-70
2021/11/26 01:04:25;;;;;;;4.18;2.30;;;6.20;79.10;;;;;;5005910;28;20462;-70
2021/11/26 01:06:51;;;;;;;5.18;2.30;;;6.20;79.10;;;;;;5005265;28;20449;-70
2021/11/26 01:09:17;;;;;;;5.43;2.17;;;6.30;79.10;;;;;;5009542;28;20033;-70
2021/11/26 01:11:42;;;;;;;4.60;2.20;;;6.40;79.30;;;;;;4972965;28;20085;-70
2021/11/26 01:14:08;;;;;;;5.32;2.25;;;6.50;78.90;;;;;;5006017;28;20116;-69
2021/11/26 01:16:34;;;;;;;4.57;2.15;;;6.50;78.80;;;;;;5007719;28;20026;-69
2021/11/26 01:18:59;;;;;;;4.93;2.50;;;6.50;78.30;;;;;;5007546;28;20100;-69
2021/11/26 01:21:25;;;;;;;4.97;2.00;;;6.50;78.10;;;;;;5008291;28;20034;-69
2021/11/26 01:23:51;;;;;;;5.50;2.15;;;6.50;78.00;;;;;;5016294;28;20030;-69
2021/11/26 01:26:16;;;;;;;5.93;2.17;;;6.50;78.00;;;;;;5012450;28;20030;-69
2021/11/26 01:28:42;;;;;;;6.00;2.38;;;6.50;77.90;;;;;;5017964;28;20033;-69
2021/11/26 01:31:08;;;;;;;3.53;1.98;;;6.50;77.70;;;;;;4999495;28;20029;-69
2021/11/26 01:33:34;;;;;;;6.13;2.08;;;6.40;77.50;;;;;;5016256;28;20558;-69
2021/11/26 01:36:00;;;;;;;6.70;2.30;;;6.40;77.40;;;;;;5014468;28;20517;-69
2021/11/26 01:38:26;;;;;;;4.53;2.28;;;6.40;77.70;;;;;;5013628;28;20108;-69
2021/11/26 01:40:52;;;;;;;6.10;2.20;;;6.40;77.60;;;;;;4995727;28;20117;-69
2021/11/26 01:43:20;;;;;;;4.85;2.15;;;6.40;77.80;;;;;;5012403;28;20034;-69
2021/11/26 01:45:54;;;;;;;7.22;2.35;;;6.40;77.90;;;;;;4995592;28;20065;-69
2021/11/26 01:48:21;;;;;;;4.65;1.88;;;6.30;77.30;;;;;;5011886;28;20031;-69
2021/11/26 01:50:49;;;;;;;6.43;2.30;;;6.30;77.60;;;;;;5013570;28;20026;-69
2021/11/26 01:53:15;;;;;;;4.55;2.20;;;6.30;78.00;;;;;;5010846;28;20029;-68
2021/11/26 01:55:41;;;;;;;7.63;2.28;;;6.40;77.90;;;;;;5010243;28;20068;-68
2021/11/26 01:58:10;;;;;;;5.22;2.28;;;6.40;78.10;;;;;;5010625;28;20562;-69
2021/11/26 02:00:38;;;;;;;6.28;2.20;;;6.40;78.10;;;;;;4993415;28;20454;-68
2021/11/26 02:03:04;;;;;;;4.38;2.22;;;6.40;78.10;;;;;;5015806;28;20026;-69
2021/11/26 02:05:30;;;;;;;5.22;2.20;;;6.40;78.00;;;;;;5011487;28;20548;-69
2021/11/26 02:07:56;;;;;;;4.97;2.17;;;6.40;78.10;;;;;;5010101;28;20140;-68
2021/11/26 02:10:21;;;;;;;6.65;1.95;;;6.50;78.10;;;;;;5010103;28;20097;-69
2021/11/26 02:12:48;;;;;;;4.90;2.15;;;6.50;77.90;;;;;;5010079;28;20105;-70
2021/11/26 02:15:19;;;;;;;3.65;1.95;;;6.40;77.90;;;;;;5012164;28;20022;-70
2021/11/26 02:17:45;;;;;;;5.40;2.13;;;6.40;77.50;;;;;;5012697;28;20076;-69
2021/11/26 02:20:16;;;;;;;5.82;2.00;;;6.40;77.90;;;;;;5010067;28;20072;-69
2021/11/26 02:22:41;;;;;;;4.25;2.47;;;6.30;77.60;;;;;;5009143;28;20103;-68
2021/11/26 02:25:08;;;;;;;4.80;2.08;;;6.30;77.60;;;;;;5009633;28;20565;-69
2021/11/26 02:27:35;;;;;;;5.50;2.22;;;6.30;78.10;;;;;;5009802;28;20423;-68
2021/11/26 02:30:05;;;;;;;4.03;1.90;;;6.30;78.00;;;;;;5013007;28;20065;-69
2021/11/26 02:32:30;;;;;;;6.35;2.70;;;6.40;78.40;;;;;;5012501;28;20029;-70
2021/11/26 02:34:56;;;;;;;5.90;2.30;;;6.40;78.30;;;;;;4992344;28;20025;-68
2021/11/26 02:37:22;;;;;;;3.85;2.10;;;6.40;78.00;;;;;;5009763;28;20030;-68
2021/11/26 02:39:47;;;;;;;4.45;2.05;;;6.40;78.10;;;;;;5008779;28;20411;-68
2021/11/26 02:42:24;;;;;;;6.53;2.00;;;6.40;78.20;;;;;;5011532;28;20525;-69
2021/11/26 02:44:50;;;;;;;7.15;2.40;;;6.30;78.20;;;;;;5012827;28;20014;-68
2021/11/26 02:47:15;;;;;;;3.47;2.17;;;6.30;78.30;;;;;;5009443;28;20038;-70
2021/11/26 02:49:41;;;;;;;5.63;2.05;;;6.30;77.70;;;;;;5009632;28;20105;-69
2021/11/26 02:52:07;;;;;;;3.60;2.13;;;6.30;77.70;;;;;;5009419;28;20116;-69
2021/11/26 02:54:33;;;;;;;3.92;2.00;;;6.30;77.80;;;;;;5009057;28;20026;-70
2021/11/26 02:56:59;;;;;;;4.68;1.83;;;6.30;78.40;;;;;;4995071;28;20033;-69
2021/11/26 02:59:24;;;;;;;5.38;2.03;;;6.30;78.30;;;;;;5010112;28;20025;-70
2021/11/26 03:01:50;;;;;;;5.05;2.20;;;6.30;77.80;;;;;;5010894;28;20036;-70
2021/11/26 03:04:16;;;;;;;3.55;1.92;;;6.20;77.80;;;;;;5009532;28;20094;-70
2021/11/26 03:06:41;;;;;;;5.25;2.35;;;6.20;77.80;;;;;;5009495;28;20054;-69
2021/11/26 03:09:07;;;;;;;4.78;1.98;;;6.20;78.10;;;;;;5011353;28;20544;-70
2021/11/26 03:11:32;;;;;;;4.88;2.40;;;6.20;78.10;;;;;;5010559;28;20030;-70
2021/11/26 03:13:58;;;;;;;5.63;2.10;;;6.10;78.50;;;;;;5009245;28;20537;-69
2021/11/26 03:16:24;;;;;;;5.68;1.90;;;6.10;78.80;;;;;;5009097;28;20026;-70
2021/11/26 03:18:49;;;;;;;4.95;1.98;;;6.20;78.80;;;;;;5008685;28;20495;-70
2021/11/26 03:21:15;;;;;;;4.32;2.22;;;6.20;78.70;;;;;;5011067;28;20034;-70
2021/11/26 03:23:41;;;;;;;3.83;1.95;;;6.20;78.40;;;;;;5010605;28;20076;-69
2021/11/26 03:26:06;;;;;;;4.85;2.38;;;6.20;78.50;;;;;;4991857;28;20026;-69
2021/11/26 03:28:32;;;;;;;4.63;2.00;;;6.20;78.40;;;;;;5009026;28;20112;-71
2021/11/26 03:30:57;;;;;;;5.63;2.03;;;6.10;77.90;;;;;;4992196;28;20421;-70
2021/11/26 03:33:23;;;;;;;5.30;2.33;;;6.10;78.30;;;;;;5009310;28;20549;-70
2021/11/26 03:35:49;;;;;;;4.88;2.40;;;6.10;79.50;;;;;;5011934;28;20030;-70
2021/11/26 03:38:15;;;;;;;4.65;2.60;;;6.00;78.50;;;;;;4991276;28;20033;-70
2021/11/26 03:40:40;;;;;;;5.20;2.33;;;6.00;78.10;;;;;;5008602;28;20399;-70
2021/11/26 03:43:06;;;;;;;3.67;2.00;;;6.00;78.20;;;;;;5010099;28;20029;-70
2021/11/26 03:45:33;;;;;;;4.82;2.00;;;6.10;78.30;;;;;;5008974;28;20041;-70
2021/11/26 03:47:59;;;;;;;5.25;2.03;;;6.10;78.30;;;;;;5011819;28;20026;-70
2021/11/26 03:50:28;;;;;;;4.80;1.85;;;6.00;78.70;;;;;;5009104;28;20125;-70
2021/11/26 03:52:54;;;;;;;3.67;2.03;;;6.10;78.60;;;;;;4991196;28;20033;-70
2021/11/26 03:55:22;;;;;;;4.55;1.90;;;6.10;78.50;;;;;;5008373;28;20029;-70
2021/11/26 03:57:50;;;;;;;3.78;1.70;;;6.10;78.20;;;;;;5008525;28;20618;-70
2021/11/26 04:00:17;;;;;;;7.25;1.98;;;6.10;78.60;;;;;;5009997;28;20040;-70
2021/11/26 04:02:42;;;;;;;6.00;2.00;;;6.10;78.20;;;;;;5014166;28;20017;-70
2021/11/26 04:05:08;;;;;;;4.25;2.10;;;6.00;78.40;;;;;;4993838;28;20037;-70
2021/11/26 04:07:34;;;;;;;3.90;1.80;;;6.00;78.60;;;;;;5007922;28;20041;-70
2021/11/26 04:10:00;;;;;;;3.60;1.95;;;6.10;78.70;;;;;;5008224;28;20483;-70
2021/11/26 04:12:28;;;;;;;3.88;1.95;;;6.10;78.60;;;;;;5009476;28;20026;-70
2021/11/26 04:14:54;;;;;;;5.45;2.42;;;6.10;78.50;;;;;;5007700;28;20026;-70
2021/11/26 04:17:22;;;;;;;4.10;1.85;;;6.00;78.20;;;;;;4990951;28;20030;-70
2021/11/26 04:19:47;;;;;;;4.85;1.73;;;6.00;78.20;;;;;;5007969;28;20018;-70
2021/11/26 04:22:13;;;;;;;3.08;1.90;;;6.00;78.80;;;;;;5007987;28;20048;-70
2021/11/26 04:24:39;;;;;;;5.05;1.95;;;6.00;78.40;;;;;;5008336;28;20026;-70
2021/11/26 04:27:04;;;;;;;4.90;2.22;;;6.00;78.60;;;;;;5010636;28;20414;-70
2021/11/26 04:29:30;;;;;;;5.15;1.88;;;6.00;78.30;;;;;;5009486;28;20022;-70
2021/11/26 04:31:56;;;;;;;3.60;1.70;;;6.00;78.60;;;;;;5008077;28;20607;-71
2021/11/26 04:34:22;;;;;;;3.65;1.88;;;6.00;78.50;;;;;;5008052;28;20076;-70
2021/11/26 04:36:47;;;;;;;4.13;2.00;;;6.00;78.30;;;;;;5007669;28;20069;-70
2021/11/26 04:39:13;;;;;;;4.97;2.00;;;5.90;78.00;;;;;;5010209;28;20400;-70
2021/11/26 04:41:39;;;;;;;5.18;2.05;;;5.90;78.40;;;;;;5009749;28;20478;-70
2021/11/26 04:44:04;;;;;;;5.03;2.03;;;6.00;78.60;;;;;;5009728;28;20566;-70
2021/11/26 04:46:30;;;;;;;3.85;1.90;;;6.00;78.80;;;;;;5008164;28;20030;-70
2021/11/26 04:48:56;;;;;;;3.80;1.90;;;6.00;78.10;;;;;;5007793;28;20030;-70
2021/11/26 04:51:21;;;;;;;5.00;1.73;;;6.00;78.20;;;;;;5008477;28;20447;-70
2021/11/26 04:53:47;;;;;;;6.55;2.10;;;6.00;78.20;;;;;;5010936;28;20525;-70
2021/11/26 04:56:13;;;;;;;4.25;1.88;;;6.00;78.10;;;;;;5007535;28;20025;-70
2021/11/26 04:58:38;;;;;;;4.05;2.08;;;6.00;77.70;;;;;;5005287;28;20030;-70
2021/11/26 05:01:05;;;;;;;3.75;1.90;;;6.00;78.30;;;;;;5009408;28;20022;-70
2021/11/26 05:03:32;;;;;;;5.97;2.15;;;6.10;78.70;;;;;;5010376;28;20071;-70
2021/11/26 05:05:59;;;;;;;5.28;1.85;;;6.10;78.40;;;;;;4996938;28;20030;-70
2021/11/26 05:08:26;;;;;;;3.28;1.60;;;6.10;78.10;;;;;;5013243;28;20038;-70
2021/11/26 05:10:53;;;;;;;4.20;1.88;;;6.20;78.10;;;;;;5011273;28;20029;-70
2021/11/26 05:13:25;;;;;;;3.35;1.55;;;6.20;78.10;;;;;;5011415;28;20502;-70
2021/11/26 05:15:51;;;;;;;6.30;1.80;;;6.20;77.90;;;;;;5011311;28;20018;-70
2021/11/26 05:18:17;;;;;;;3.75;1.70;;;6.20;77.70;;;;;;5012184;28;20041;-70
2021/11/26 05:20:43;;;;;;;5.93;1.70;;;6.20;77.90;;;;;;4996965;28;20042;-70
2021/11/26 05:23:11;;;;;;;2.92;1.45;;;6.20;77.80;;;;;;5011322;28;20041;-70
2021/11/26 05:25:37;;;;;;;3.47;1.45;;;6.20;77.90;;;;;;4993787;28;20034;-70
2021/11/26 05:28:03;;;;;;;5.65;1.45;;;6.20;77.90;;;;;;5011142;28;20036;-70
2021/11/26 05:30:28;;;;;;;3.20;1.77;;;6.20;78.00;;;;;;5011089;28;20490;-70
2021/11/26 05:32:54;;;;;;;3.33;1.58;;;6.20;78.10;;;;;;5014510;28;20534;-70
2021/11/26 05:35:20;;;;;;;4.10;1.98;;;6.20;77.70;;;;;;5011927;28;20487;-70
2021/11/26 05:37:47;;;;;;;3.17;1.77;;;6.20;77.60;;;;;;5010784;28;20030;-70
2021/11/26 05:40:15;;;;;;;3.05;1.60;;;6.20;77.00;;;;;;5011166;28;20061;-70
2021/11/26 05:42:42;;;;;;;4.63;1.40;;;6.20;77.40;;;;;;5012855;28;20040;-70
2021/11/26 05:45:09;;;;;;;2.78;1.63;;;6.20;78.10;;;;;;5013494;28;20014;-70
2021/11/26 05:47:35;;;;;;;4.22;1.65;;;6.20;78.10;;;;;;5011459;28;20073;-70
2021/11/26 05:50:06;;;;;;;4.13;1.50;;;6.30;77.90;;;;;;5010760;28;20073;-70
2021/11/26 05:52:32;;;;;;;5.35;1.70;;;6.30;78.50;;;;;;5010495;28;20030;-70
2021/11/26 05:54:57;;;;;;;3.22;1.50;;;6.30;77.60;;;;;;5006911;28;20029;-70
2021/11/26 05:57:23;;;;;;;4.53;1.60;;;6.30;77.50;;;;;;5011117;28;20403;-71
2021/11/26 05:59:49;;;;;;;4.28;1.58;;;6.30;77.70;;;;;;4992787;28;20080;-70
2021/11/26 06:02:14;;;;;;;2.97;1.50;;;6.20;77.70;;;;;;5012660;28;20026;-70
2021/11/26 06:04:40;;;;;;;3.85;1.30;;;6.30;77.80;;;;;;5010802;28;20030;-70
2021/11/26 06:07:06;;;;;;;3.88;1.50;;;6.30;77.60;;;;;;5010114;28;20458;-70
2021/11/26 06:09:31;;;;;;;3.63;1.30;;;6.30;77.50;;;;;;5010479;28;20140;-69
2021/11/26 06:11:57;;;;;;;3.75;1.45;;;6.30;77.50;;;;;;5013892;28;20026;-69
2021/11/26 06:14:23;;;;;;;2.97;1.60;;;6.30;77.60;;;;;;5010454;28;20494;-70
2021/11/26 06:16:48;;;;;;;4.97;1.70;;;6.30;77.50;;;;;;5009528;28;20236;-69
2021/11/26 06:19:14;;;;;;;3.80;1.40;;;6.30;77.30;;;;;;5010440;28;20030;-69
2021/11/26 06:21:40;;;;;;;3.72;1.55;;;6.30;77.30;;;;;;5010251;28;20033;-69
2021/11/26 06:24:05;;;;;;;3.13;1.40;;;6.30;77.60;;;;;;5012371;28;20093;-69
2021/11/26 06:26:31;;;;;;;3.80;1.52;;;6.30;77.70;;;;;;5011030;28;20030;-68
2021/11/26 06:28:57;;;;;;;2.05;1.25;;;6.30;77.50;;;;;;5009699;28;20121;-69
2021/11/26 06:31:23;;;;;;;3.60;1.45;;;6.30;77.60;;;;;;4992378;28;20026;-69
2021/11/26 06:33:48;;;;;;;4.13;1.40;;;6.30;77.50;;;;;;5000775;28;20084;-69
2021/11/26 06:36:14;;;;;;;4.22;1.27;;;6.30;77.70;;;;;;5004380;28;20023;-69
2021/11/26 06:38:40;;;;;;;5.38;1.42;;;6.30;77.60;;;;;;4990667;28;20031;-73
2021/11/26 06:41:05;;;;;;;3.40;1.13;;;6.40;77.70;;;;;;5007742;28;20174;-72
2021/11/26 06:43:31;;;;;;;2.90;1.05;;;6.40;77.80;;;;;;5011550;28;20026;-73
2021/11/26 06:45:57;;;;;;;2.88;1.30;;;6.40;77.70;;;;;;5009313;28;20446;-74
2021/11/26 06:48:25;;;;;;;3.83;1.50;;;6.50;77.70;;;;;;5010129;28;20503;-73
2021/11/26 06:50:51;;;;;;;3.05;1.20;;;6.50;77.70;;;;;;5012791;28;20163;-74
2021/11/26 06:53:17;;;;;;;3.58;1.17;;;6.50;77.70;;;;;;5009228;28;20040;-73
2021/11/26 06:55:42;;;;;;;2.10;1.02;;;6.60;77.80;;;;;;5009326;28;20022;-69
2021/11/26 06:58:08;;;;;;;2.40;1.00;;;6.50;77.80;;;;;;5009449;28;20026;-70
2021/11/26 07:00:34;;;;;;;1.73;0.90;;;6.60;77.60;;;;;;5009448;28;20033;-72
2021/11/26 07:02:59;;;;;;;4.28;1.10;;;6.60;77.90;;;;;;5015393;28;20065;-72
2021/11/26 07:05:25;;;;;;;4.78;1.23;;;6.60;78.00;;;;;;5009237;28;20026;-72
2021/11/26 07:07:51;;;;;;;4.43;1.17;;;6.60;78.00;;;;;;5008783;28;20402;-74
2021/11/26 07:10:17;;;;;;;2.80;0.93;;;6.70;78.00;;;;;;5009412;28;20105;-72
2021/11/26 07:12:43;;;;;;;3.45;1.25;;;6.70;78.00;;;;;;5009159;28;20060;-75
2021/11/26 07:15:11;;;;;;;5.32;1.73;;;6.70;77.60;;;;;;5010437;28;20029;-68
2021/11/26 07:17:37;;;;;;;3.15;1.13;;;6.70;77.70;;;;;;5010101;28;20014;-68
2021/11/26 07:20:04;;;;;;;2.42;1.10;;;6.70;77.90;;;;;;5009086;28;20502;-69
2021/11/26 07:22:30;;;;;;;3.35;1.13;;;6.80;78.00;;;;;;4991529;28;20022;-68
2021/11/26 07:24:56;;;;;;;3.50;1.00;;;6.70;78.10;;;;;;5008340;28;20037;-69
2021/11/26 07:27:22;;;;;;;2.50;0.80;;;6.70;78.20;;;;;;5009528;28;20519;-68
2021/11/26 07:29:48;;;;;;;3.30;1.00;;;6.70;78.30;;;;;;5011138;28;20041;-69
2021/11/26 07:32:14;;;;;;;2.60;1.20;;;6.80;78.40;;;;;;5009062;28;20521;-69
2021/11/26 07:34:40;;;;;;;2.90;0.85;;;6.70;78.50;;;;;;5010043;28;20030;-69
2021/11/26 07:37:07;;;;;;;3.38;1.00;;;6.70;79.20;;;;;;5008850;28;20022;-69
2021/11/26 07:39:35;;;;;;;1.77;0.80;;;6.70;79.10;;;;;;5009100;28;20507;-69
2021/11/26 07:42:03;;;;;;;2.22;0.68;;;6.80;78.60;;;;;;5011714;28;20499;-68
2021/11/26 07:44:30;;;;;;;2.00;0.95;;;6.80;78.60;;;;;;5010920;28;20029;-69
2021/11/26 07:46:57;;;;;;;2.17;0.93;;;6.80;78.40;;;;;;5008284;28;20438;-69
2021/11/26 07:49:24;;;;;;;2.45;0.73;;;6.80;78.60;;;;;;5008086;28;20087;-69
2021/11/26 07:51:50;;;;;;;2.92;1.10;;;6.80;78.30;;;;;;4991310;28;20798;-69
2021/11/26 07:54:17;;;;;;;2.58;0.98;;;6.80;78.40;;;;;;5009752;28;20029;-69
2021/11/26 07:56:42;;;;;;;2.75;0.90;;;6.90;78.70;;;;;;5012204;28;20078;-69
2021/11/26 07:59:08;;;;;;;3.65;1.23;;;6.80;78.10;;;;;;5008009;28;20025;-68
2021/11/26 08:01:34;;;;;;;3.95;1.00;;;6.80;78.30;;;;;;5012298;28;20076;-68
2021/11/26 08:04:01;;;;;;;3.63;1.10;;;6.80;78.20;;;;;;5008960;28;20026;-69
2021/11/26 08:06:26;;;;;;;2.60;0.65;;;6.80;78.50;;;;;;4975767;28;20058;-68
2021/11/26 08:08:52;;;;;;;3.25;0.93;;;6.80;78.40;;;;;;4990922;28;20042;-69
2021/11/26 08:11:18;;;;;;;2.05;1.10;;;6.80;78.70;;;;;;5007263;28;20033;-69
2021/11/26 08:13:43;;;;;;;2.53;1.00;;;6.80;78.60;;;;;;5007353;28;20029;-69
2021/11/26 08:16:09;;;;;;;2.75;0.77;;;6.80;78.60;;;;;;5010243;28;20053;-70
2021/11/26 08:18:35;;;;;;;2.33;0.90;;;6.90;78.60;;;;;;5008266;28;20105;-69
2021/11/26 08:21:01;;;;;;;4.35;1.10;;;6.90;78.70;;;;;;5011436;28;20498;-69
2021/11/26 08:23:27;;;;;;;2.65;0.82;;;7.00;78.90;;;;;;5008275;28;20490;-69
2021/11/26 08:25:54;;;;;;;2.03;0.90;;;6.90;79.00;;;;;;4990659;28;20097;-69
2021/11/26 08:28:19;;;;;;;1.95;0.70;;;7.00;79.10;;;;;;4999623;28;20495;-69
2021/11/26 08:30:45;;;;;;;2.90;1.02;;;7.00;79.00;;;;;;4995956;28;20030;-69
2021/11/26 08:33:11;;;;;;;1.25;0.60;;;7.10;79.10;;;;;;4985452;28;20030;-69
2021/11/26 08:35:37;;;;;;;2.25;0.77;;;7.10;78.80;;;;;;5008257;28;20073;-69
2021/11/26 08:38:03;;;;;;;2.70;0.90;;;7.10;79.00;;;;;;5009332;28;20088;-69
2021/11/26 08:40:28;;;;;;;2.95;0.80;;;7.10;79.10;;;;;;4993933;28;20037;-68
2021/11/26 08:42:54;;;;;;;7.80;2.92;;;7.10;79.10;;;;;;5011523;28;20398;-69
2021/11/26 08:45:20;;;;;;;4.00;1.15;;;7.20;78.90;;;;;;5012337;28;20022;-69
2021/11/26 08:47:46;;;;;;;7.47;2.28;;;7.20;78.70;;;;;;4997318;28;20042;-69
2021/11/26 08:50:14;;;;;;;5.20;1.40;;;7.20;79.00;;;;;;5016061;28;20030;-68
2021/11/26 08:52:43;;;;;;;2.40;0.90;;;7.20;79.10;;;;;;5002863;28;20057;-69
2021/11/26 08:55:12;;;;;;;4.28;1.15;;;7.30;79.00;;;;;;5002511;28;20384;-69
2021/11/26 08:57:39;;;;;;;3.78;0.98;;;7.30;78.80;;;;;;5012438;28;20026;-69
2021/11/26 09:00:06;;;;;;;3.75;1.10;;;7.30;78.90;;;;;;5014593;28;20018;-69
2021/11/26 09:02:32;;;;;;;3.70;1.05;;;7.30;79.00;;;;;;4998531;28;20446;-69
2021/11/26 09:04:58;;;;;;;3.60;1.02;;;7.30;79.10;;;;;;5011308;28;20080;-69
2021/11/26 09:07:25;;;;;;;1.92;0.65;;;7.30;79.20;;;;;;5011172;28;20042;-69
2021/11/26 09:09:51;;;;;;;3.10;0.90;;;7.40;79.30;;;;;;5013891;28;20053;-70
2021/11/26 09:12:16;;;;;;;4.93;1.10;;;7.40;79.20;;;;;;5018267;28;20071;-69
2021/11/26 09:14:42;;;;;;;3.22;0.80;;;7.40;78.80;;;;;;5025092;28;20033;-69
2021/11/26 09:17:08;;;;;;;2.45;0.60;;;7.50;79.10;;;;;;5013664;28;20033;-69
2021/11/26 09:19:34;;;;;;;4.22;1.10;;;7.50;78.80;;;;;;5011370;28;20117;-69
2021/11/26 09:22:00;;;;;;;1.73;0.82;;;7.50;78.60;;;;;;5011609;28;20061;-69
2021/11/26 09:24:25;;;;;;;1.50;0.90;;;7.50;78.60;;;;;;4994360;28;20414;-69
2021/11/26 09:26:51;;;;;;;3.63;0.77;;;7.50;79.00;;;;;;5014275;28;20041;-69
2021/11/26 09:29:17;;;;;;;2.35;0.80;;;7.50;79.70;;;;;;5011361;28;19917;-69
2021/11/26 09:31:42;;;;;;;2.42;0.80;;;7.50;79.00;;;;;;5011066;28;20025;-69
2021/11/26 09:34:08;;;;;;;2.45;0.90;;;7.50;78.50;;;;;;5011179;28;20033;-69
2021/11/26 09:36:35;;;;;;;3.55;1.00;;;7.50;78.60;;;;;;5011143;28;20054;-69
2021/11/26 09:39:04;;;;;;;2.65;0.77;;;7.50;78.80;;;;;;5013973;28;20538;-69
2021/11/26 09:41:29;;;;;;;2.78;1.02;;;7.60;79.00;;;;;;5011769;28;20105;-69
2021/11/26 09:43:58;;;;;;;2.58;1.15;;;7.70;78.60;;;;;;4992779;28;20465;-69
2021/11/26 09:46:28;;;;;;;2.80;0.82;;;7.80;78.40;;;;;;5010240;28;20021;-69
2021/11/26 09:48:54;;;;;;;2.40;1.23;;;7.80;78.30;;;;;;5010334;28;20030;-69
2021/11/26 09:51:19;;;;;;;4.43;0.98;;;7.80;78.00;;;;;;5011941;28;20030;-69
2021/11/26 09:53:45;;;;;;;2.88;1.10;;;7.90;77.90;;;;;;4992126;28;20093;-69
2021/11/26 09:56:12;;;;;;;3.33;0.88;;;7.90;77.80;;;;;;5008775;28;20438;-69
2021/11/26 09:58:38;;;;;;;3.17;1.00;;;7.90;77.80;;;;;;5010537;28;20041;-69
2021/11/26 10:01:06;;;;;;;4.00;0.85;;;7.90;77.90;;;;;;5014300;28;20021;-69
2021/11/26 10:03:47;;;;;;;3.70;1.00;;;8.00;78.10;;;;;;5002178;28;20131;-68
2021/11/26 10:06:28;;;;;;;4.10;1.08;;;8.10;78.10;;;;;;5012419;28;20033;-68
2021/11/26 10:08:59;;;;;;;2.50;0.90;;;8.20;77.70;;;;;;5013691;28;20033;-68
2021/11/26 10:11:28;;;;;;;2.70;0.98;;;8.20;77.10;;;;;;5023231;28;20120;-68
2021/11/26 10:13:54;;;;;;;4.93;1.08;;;8.20;76.90;;;;;;5014309;28;20076;-68
2021/11/26 10:16:21;;;;;;;2.85;0.80;;;8.20;77.10;;;;;;5010317;28;20430;-68
2021/11/26 10:18:52;;;;;;;2.90;0.88;;;8.20;77.00;;;;;;5010726;28;20061;-70
2021/11/26 10:21:19;;;;;;;2.80;0.90;;;8.20;77.20;;;;;;5011844;28;20041;-69
2021/11/26 10:23:48;;;;;;;2.67;0.90;;;8.20;76.90;;;;;;5012165;28;20127;-69
2021/11/26 10:26:19;;;;;;;3.97;1.10;;;8.20;76.90;;;;;;5009946;28;20022;-69
2021/11/26 10:29:02;;;;;;;3.92;1.13;;;8.30;77.40;;;;;;5009727;28;20038;-69
2021/11/26 10:31:32;;;;;;;4.30;1.67;;;8.30;76.90;;;;;;5010066;28;20052;-69
2021/11/26 10:34:00;;;;;;;5.30;1.20;;;8.40;77.20;;;;;;5009791;28;20040;-69
2021/11/26 10:36:27;;;;;;;3.28;1.23;;;8.40;76.90;;;;;;5010178;28;20048;-69
2021/11/26 10:38:54;;;;;;;5.90;1.55;;;8.50;76.70;;;;;;5012689;28;20053;-69
2021/11/26 10:41:29;;;;;;;6.13;1.33;;;8.50;76.80;;;;;;5009784;28;20026;-69
2021/11/26 10:44:08;;;;;;;3.20;1.30;;;8.50;76.50;;;;;;5009740;28;20026;-69
2021/11/26 10:47:23;;;;;;;2.78;1.00;;;8.50;76.70;;;;;;5009142;28;20048;-69
2021/11/26 10:52:19;;;;;;;3.55;1.15;;;8.60;77.00;;;;;;5009418;28;20029;-70
2021/11/26 11:00:07;;;;;;;4.32;1.35;;;8.70;76.70;;;;;;5012258;28;20030;-69
2021/11/26 11:02:39;;;;;;;2.85;1.38;;;8.80;76.90;;;;;;5021608;28;20032;-69
2021/11/26 11:05:08;;;;;;;4.78;1.38;;;8.90;76.50;;;;;;5011797;28;20021;-69
2021/11/26 11:07:43;;;;;;;3.60;1.30;;;8.90;76.30;;;;;;5004612;28;20057;-69
2021/11/26 11:10:13;;;;;;;5.43;1.40;;;8.90;76.60;;;;;;5007201;28;20092;-70
2021/11/26 11:12:39;;;;;;;3.17;1.27;;;8.90;76.80;;;;;;5009096;28;20022;-69
2021/11/26 11:15:11;;;;;;;3.72;1.17;;;8.90;76.70;;;;;;5010303;28;20081;-69
2021/11/26 11:17:38;;;;;;;3.30;1.35;;;8.90;76.90;;;;;;5009819;28;20403;-70
2021/11/26 11:20:16;;;;;;;4.57;1.00;;;9.00;77.10;;;;;;5008878;28;20034;-70
2021/11/26 11:22:42;;;;;;;2.45;0.95;;;8.90;77.10;;;;;;5007732;28;20022;-68
2021/11/26 11:25:10;;;;;;;3.63;1.00;;;9.00;77.20;;;;;;5009530;28;20026;-68
2021/11/26 11:27:36;;;;;;;3.97;0.93;;;8.90;77.40;;;;;;5008589;28;20491;-68
2021/11/26 11:30:05;;;;;;;3.53;1.00;;;9.00;77.70;;;;;;5011030;28;20026;-68
2021/11/26 11:32:30;;;;;;;5.72;1.00;;;8.90;77.60;;;;;;5009875;28;20018;-68
2021/11/26 11:34:57;;;;;;;3.92;1.52;;;8.90;78.10;;;;;;5008373;28;20040;-69
2021/11/26 11:37:28;;;;;;;3.58;1.13;;;9.00;78.20;;;;;;5007955;28;20030;-69
2021/11/26 11:39:58;;;;;;;3.50;1.10;;;9.10;78.20;;;;;;5009601;28;20025;-69
2021/11/26 11:42:37;;;;;;;3.53;0.80;;;9.20;77.90;;;;;;5008313;28;20049;-69
2021/11/26 11:45:10;;;;;;;3.55;0.98;;;9.20;77.60;;;;;;5008414;28;20391;-69
2021/11/26 11:47:46;;;;;;;2.47;0.82;;;9.20;77.60;;;;;;5010090;28;20376;-69
2021/11/26 11:50:27;;;;;;;2.88;0.80;;;9.20;77.30;;;;;;5008603;28;20088;-69
2021/11/26 11:52:58;;;;;;;2.55;0.80;;;9.20;77.40;;;;;;5009275;28;20030;-69
2021/11/26 11:55:39;;;;;;;4.68;2.05;;;9.20;77.60;;;;;;5009691;28;20056;-69
2021/11/26 11:58:20;;;;;;;3.42;0.85;;;9.20;77.60;;;;;;5008195;28;20458;-69
2021/11/26 12:00:48;;;;;;;3.17;0.85;;;9.20;77.70;;;;;;5003991;28;20025;-70
2021/11/26 12:03:18;;;;;;;2.33;0.80;;;9.20;78.30;;;;;;5010048;28;20014;-69
2021/11/26 12:06:01;;;;;;;4.22;0.70;;;9.20;78.40;;;;;;5009845;28;20149;-70
2021/11/26 12:08:27;;;;;;;7.55;1.90;;;9.30;78.70;;;;;;4992098;28;20510;-69
2021/11/26 12:11:01;;;;;;;3.42;1.10;;;9.30;78.80;;;;;;5009465;28;20076;-69
2021/11/26 12:13:35;;;;;;;4.25;1.00;;;9.30;78.70;;;;;;4992430;28;20033;-69
2021/11/26 12:16:15;;;;;;;3.92;0.80;;;9.50;79.30;;;;;;4991033;28;20036;-70
2021/11/26 12:18:41;;;;;;;3.60;1.10;;;9.70;79.10;;;;;;4994213;28;20029;-70
2021/11/26 12:21:07;;;;;;;2.88;1.02;;;9.80;78.50;;;;;;5010159;28;20113;-70
2021/11/26 12:23:47;;;;;;;4.28;1.20;;;9.70;78.10;;;;;;5009688;28;20022;-70
2021/11/26 12:27:13;;;;;;;3.20;1.10;;;9.70;77.90;;;;;;5008468;28;20026;-70
2021/11/26 12:29:11;;;;;;;3.10;1.00;;;9.70;78.10;;;;;;4993631;28;20054;-70
2021/11/26 12:31:38;;;;;;;3.70;1.10;;;9.60;79.20;;;;;;4990622;28;20505;-70
2021/11/26 12:34:14;;;;;;;2.22;0.80;;;9.60;78.60;;;;;;4990056;28;20029;-70
2021/11/26 12:36:50;;;;;;;3.92;1.00;;;9.60;78.70;;;;;;5007564;28;20033;-70
2021/11/26 12:39:24;;;;;;;2.85;0.80;;;9.60;78.90;;;;;;5009448;28;20475;-70
2021/11/26 12:41:53;;;;;;;1.73;0.90;;;9.70;79.40;;;;;;5010316;28;20392;-70
2021/11/26 12:44:22;;;;;;;3.22;0.77;;;9.80;79.40;;;;;;5007754;28;20487;-70
2021/11/26 12:46:56;;;;;;;2.85;0.90;;;9.90;79.20;;;;;;5007466;28;20060;-70
2021/11/26 12:51:54;;;;;;;4.57;1.02;;;10.10;79.10;;;;;;5008461;28;20105;-70
2021/11/26 12:54:25;;;;;;;3.83;0.90;;;10.10;78.90;;;;;;5009629;28;20072;-69
2021/11/26 12:56:52;;;;;;;4.32;0.82;;;10.10;78.60;;;;;;5011636;28;20018;-71
2021/11/26 12:59:35;;;;;;;2.70;0.80;;;10.20;78.90;;;;;;5008424;28;20029;-70
2021/11/26 13:02:02;;;;;;;1.38;0.55;;;10.20;78.90;;;;;;5013678;28;20026;-70
2021/11/26 13:04:28;;;;;;;3.22;0.90;;;10.40;79.00;;;;;;5000911;28;20022;-69
2021/11/26 13:07:24;;;;;;;3.75;0.80;;;10.50;78.80;;;;;;5008188;28;20108;-70
2021/11/26 13:09:55;;;;;;;2.70;0.90;;;10.50;78.40;;;;;;4997836;28;20042;-71